Forside
METAR-TAF:

METAR-TAF

Lufthavne :

Ängelholm-Helsingborg Lufthavn

Helsingborg, Sverige

Breddekreds: 56-17-46N, længdekreds: 012-50-50E, højde: 21 m

Aktuelle vejr

Denne rapport blev lavet for 24 minutter siden, kl. 19:50 UTC
Vind 5 kt fra østsydøst
Temperatur 13°C
Fugtighed 62%
Tryk 1022 hPa
Sigt 10 km eller mere
ingen skyer under 1500m og ingen cumulonimbus

METAR: ESTA 181950Z 11005KT CAVOK 13/06 Q1022

Tid: 22:14 (20:14 UTC)

Vejrudsigter

Denne rapport blev lavet for 3 timer og 11 minutter siden, kl. 17:03 UTC
Foreløbig gælder fra 18 på 18 UTC til 18 på 23 UTC
Vind 9 kt fra østsydøst
Sigt 10 km eller mere
ingen skyer under 1500m og ingen cumulonimbus

TAF: ESTA 181703Z 1818/1823 12009KT CAVOK

Vejrobservationer og prognoser fra mere end 4000 lufthavne (METAR og TAF).

De gule og røde prikker repræsenterer de meteorologiske stationer.

Flyt musen over at se navnet på stationen.

Så klik over at se vejr observationer og prognoser.

At skifte det kort: Klik på de grønne knapper med et sort kors for at zoome ind; på den grønne knap med en bindestreg for at zoome ud; eller på de grønne pile for tilstødende kort.


METAR-TAF: